sensor_id;sensor_type;location;lat;lon;timestamp;temperature;humidity
45137;DHT22;30894;51.740;19.498;2023-02-26T00:01:25;0.00;99.90
45137;DHT22;30894;51.740;19.498;2023-02-26T00:03:55;0.00;99.90
45137;DHT22;30894;51.740;19.498;2023-02-26T00:06:25;0.00;99.90
45137;DHT22;30894;51.740;19.498;2023-02-26T00:08:51;0.00;99.90
45137;DHT22;30894;51.740;19.498;2023-02-26T00:11:21;0.00;99.90
45137;DHT22;30894;51.740;19.498;2023-02-26T00:13:48;0.00;99.90
45137;DHT22;30894;51.740;19.498;2023-02-26T00:16:35;0.00;99.90
45137;DHT22;30894;51.740;19.498;2023-02-26T00:19:11;0.00;99.90
45137;DHT22;30894;51.740;19.498;2023-02-26T00:21:40;0.00;99.90
45137;DHT22;30894;51.740;19.498;2023-02-26T00:24:10;0.00;99.90
45137;DHT22;30894;51.740;19.498;2023-02-26T00:26:47;0.00;99.90
45137;DHT22;30894;51.740;19.498;2023-02-26T00:29:13;0.00;99.90
45137;DHT22;30894;51.740;19.498;2023-02-26T00:31:42;-0.10;99.90
45137;DHT22;30894;51.740;19.498;2023-02-26T00:34:11;-0.10;99.90
45137;DHT22;30894;51.740;19.498;2023-02-26T00:43:09;-0.10;99.90
45137;DHT22;30894;51.740;19.498;2023-02-26T00:49:09;-0.10;99.90
45137;DHT22;30894;51.740;19.498;2023-02-26T00:51:49;-0.10;99.90
45137;DHT22;30894;51.740;19.498;2023-02-26T00:56:50;-0.10;99.90
45137;DHT22;30894;51.740;19.498;2023-02-26T00:59:19;-0.10;99.90
45137;DHT22;30894;51.740;19.498;2023-02-26T01:01:45;-0.10;99.90
45137;DHT22;30894;51.740;19.498;2023-02-26T01:04:13;-0.10;99.90
45137;DHT22;30894;51.740;19.498;2023-02-26T01:06:43;-0.10;99.90
45137;DHT22;30894;51.740;19.498;2023-02-26T01:09:33;-0.10;99.90
45137;DHT22;30894;51.740;19.498;2023-02-26T01:12:07;-0.10;99.90
45137;DHT22;30894;51.740;19.498;2023-02-26T01:14:38;-0.10;99.90
45137;DHT22;30894;51.740;19.498;2023-02-26T01:20:10;-0.10;99.90
45137;DHT22;30894;51.740;19.498;2023-02-26T01:25:47;-0.10;99.90
45137;DHT22;30894;51.740;19.498;2023-02-26T01:28:26;-0.10;99.90
45137;DHT22;30894;51.740;19.498;2023-02-26T01:30:55;-0.10;99.90
45137;DHT22;30894;51.740;19.498;2023-02-26T01:33:43;-0.10;99.90
45137;DHT22;30894;51.740;19.498;2023-02-26T01:36:18;-0.10;99.90
45137;DHT22;30894;51.740;19.498;2023-02-26T01:41:37;-0.10;99.90
45137;DHT22;30894;51.740;19.498;2023-02-26T01:44:35;-0.10;99.90
45137;DHT22;30894;51.740;19.498;2023-02-26T01:47:44;-0.10;99.90
45137;DHT22;30894;51.740;19.498;2023-02-26T01:50:19;-0.10;99.90
45137;DHT22;30894;51.740;19.498;2023-02-26T01:55:20;-0.10;99.90
45137;DHT22;30894;51.740;19.498;2023-02-26T01:57:53;-0.10;99.90
45137;DHT22;30894;51.740;19.498;2023-02-26T02:03:03;-0.10;99.90
45137;DHT22;30894;51.740;19.498;2023-02-26T02:05:31;-0.10;99.90
45137;DHT22;30894;51.740;19.498;2023-02-26T02:08:00;-0.10;99.90
45137;DHT22;30894;51.740;19.498;2023-02-26T02:10:27;-0.10;99.90
45137;DHT22;30894;51.740;19.498;2023-02-26T02:18:51;-0.10;99.90
45137;DHT22;30894;51.740;19.498;2023-02-26T02:21:32;-0.10;99.90
45137;DHT22;30894;51.740;19.498;2023-02-26T02:33:50;-0.10;99.90
45137;DHT22;30894;51.740;19.498;2023-02-26T02:42:07;-0.20;99.90
45137;DHT22;30894;51.740;19.498;2023-02-26T02:44:38;-0.20;99.90
45137;DHT22;30894;51.740;19.498;2023-02-26T02:47:09;-0.20;99.90
45137;DHT22;30894;51.740;19.498;2023-02-26T02:49:49;-0.20;99.90
45137;DHT22;30894;51.740;19.498;2023-02-26T02:52:38;-0.20;99.90
45137;DHT22;30894;51.740;19.498;2023-02-26T02:55:14;-0.20;99.90
45137;DHT22;30894;51.740;19.498;2023-02-26T02:57:49;-0.20;99.90
45137;DHT22;30894;51.740;19.498;2023-02-26T03:00:20;-0.20;99.90
45137;DHT22;30894;51.740;19.498;2023-02-26T03:03:23;-0.20;99.90
45137;DHT22;30894;51.740;19.498;2023-02-26T03:05:53;-0.20;99.90
45137;DHT22;30894;51.740;19.498;2023-02-26T03:08:23;-0.20;99.90
45137;DHT22;30894;51.740;19.498;2023-02-26T03:10:52;-0.20;99.90
45137;DHT22;30894;51.740;19.498;2023-02-26T03:13:20;-0.20;99.90
45137;DHT22;30894;51.740;19.498;2023-02-26T03:22:21;-0.30;99.90
45137;DHT22;30894;51.740;19.498;2023-02-26T03:28:04;-0.30;99.90
45137;DHT22;30894;51.740;19.498;2023-02-26T03:33:37;-0.30;99.90
45137;DHT22;30894;51.740;19.498;2023-02-26T03:36:15;-0.30;99.90
45137;DHT22;30894;51.740;19.498;2023-02-26T03:38:48;-0.30;99.90
45137;DHT22;30894;51.740;19.498;2023-02-26T03:41:59;-0.40;99.90
45137;DHT22;30894;51.740;19.498;2023-02-26T03:44:34;-0.40;99.90
45137;DHT22;30894;51.740;19.498;2023-02-26T03:47:14;-0.50;99.90
45137;DHT22;30894;51.740;19.498;2023-02-26T03:49:58;-0.50;99.90
45137;DHT22;30894;51.740;19.498;2023-02-26T03:52:27;-0.50;99.90
45137;DHT22;30894;51.740;19.498;2023-02-26T03:54:58;-0.50;99.90
45137;DHT22;30894;51.740;19.498;2023-02-26T03:57:26;-0.50;99.90
45137;DHT22;30894;51.740;19.498;2023-02-26T03:59:52;-0.60;99.90
45137;DHT22;30894;51.740;19.498;2023-02-26T04:02:36;-0.60;99.90
45137;DHT22;30894;51.740;19.498;2023-02-26T04:05:15;-0.60;99.90
45137;DHT22;30894;51.740;19.498;2023-02-26T04:07:44;-0.60;99.90
45137;DHT22;30894;51.740;19.498;2023-02-26T04:10:15;-0.50;99.90
45137;DHT22;30894;51.740;19.498;2023-02-26T04:12:44;-0.50;99.90
45137;DHT22;30894;51.740;19.498;2023-02-26T04:15:11;-0.50;99.90
45137;DHT22;30894;51.740;19.498;2023-02-26T04:17:37;-0.50;99.90
45137;DHT22;30894;51.740;19.498;2023-02-26T04:20:04;-0.50;99.90
45137;DHT22;30894;51.740;19.498;2023-02-26T04:22:35;-0.50;99.90
45137;DHT22;30894;51.740;19.498;2023-02-26T04:25:02;-0.50;99.90
45137;DHT22;30894;51.740;19.498;2023-02-26T04:27:28;-0.50;99.90
45137;DHT22;30894;51.740;19.498;2023-02-26T04:29:54;-0.50;99.90
45137;DHT22;30894;51.740;19.498;2023-02-26T04:32:20;-0.50;99.90
45137;DHT22;30894;51.740;19.498;2023-02-26T04:34:47;-0.50;99.90
45137;DHT22;30894;51.740;19.498;2023-02-26T04:37:12;-0.50;99.90
45137;DHT22;30894;51.740;19.498;2023-02-26T04:39:39;-0.50;99.90
45137;DHT22;30894;51.740;19.498;2023-02-26T04:42:05;-0.50;99.90
45137;DHT22;30894;51.740;19.498;2023-02-26T04:44:31;-0.50;99.90
45137;DHT22;30894;51.740;19.498;2023-02-26T04:46:57;-0.50;99.90
45137;DHT22;30894;51.740;19.498;2023-02-26T04:49:24;-0.50;99.90
45137;DHT22;30894;51.740;19.498;2023-02-26T04:51:50;-0.50;99.90
45137;DHT22;30894;51.740;19.498;2023-02-26T04:54:16;-0.40;99.90
45137;DHT22;30894;51.740;19.498;2023-02-26T04:56:42;-0.50;99.90
45137;DHT22;30894;51.740;19.498;2023-02-26T04:59:08;-0.60;99.90
45137;DHT22;30894;51.740;19.498;2023-02-26T05:01:34;-0.60;99.90
45137;DHT22;30894;51.740;19.498;2023-02-26T05:04:01;-0.70;99.90
45137;DHT22;30894;51.740;19.498;2023-02-26T05:06:27;-0.80;99.90
45137;DHT22;30894;51.740;19.498;2023-02-26T05:08:54;-0.90;99.90
45137;DHT22;30894;51.740;19.498;2023-02-26T05:11:20;-1.00;99.90
45137;DHT22;30894;51.740;19.498;2023-02-26T05:13:46;-1.10;99.90
45137;DHT22;30894;51.740;19.498;2023-02-26T05:16:12;-1.10;99.90
45137;DHT22;30894;51.740;19.498;2023-02-26T05:18:39;-1.10;99.90
45137;DHT22;30894;51.740;19.498;2023-02-26T05:21:05;-1.10;99.90
45137;DHT22;30894;51.740;19.498;2023-02-26T05:23:32;-1.10;99.90
45137;DHT22;30894;51.740;19.498;2023-02-26T05:25:58;-1.10;99.90
45137;DHT22;30894;51.740;19.498;2023-02-26T05:28:26;-1.00;99.90
45137;DHT22;30894;51.740;19.498;2023-02-26T05:30:52;-1.00;99.90
45137;DHT22;30894;51.740;19.498;2023-02-26T05:33:21;-1.00;99.90
45137;DHT22;30894;51.740;19.498;2023-02-26T05:35:47;-1.00;99.90
45137;DHT22;30894;51.740;19.498;2023-02-26T05:38:14;-1.00;99.90
45137;DHT22;30894;51.740;19.498;2023-02-26T05:40:40;-1.00;99.90
45137;DHT22;30894;51.740;19.498;2023-02-26T05:43:06;-0.90;99.90
45137;DHT22;30894;51.740;19.498;2023-02-26T05:45:33;-0.90;99.90
45137;DHT22;30894;51.740;19.498;2023-02-26T05:48:06;-0.90;99.90
45137;DHT22;30894;51.740;19.498;2023-02-26T05:50:32;-0.90;99.90
45137;DHT22;30894;51.740;19.498;2023-02-26T05:52:59;-0.90;99.90
45137;DHT22;30894;51.740;19.498;2023-02-26T05:55:28;-0.80;99.90
45137;DHT22;30894;51.740;19.498;2023-02-26T05:57:55;-0.80;99.90
45137;DHT22;30894;51.740;19.498;2023-02-26T06:00:21;-0.80;99.90
45137;DHT22;30894;51.740;19.498;2023-02-26T06:02:49;-0.80;99.90
45137;DHT22;30894;51.740;19.498;2023-02-26T06:05:15;-0.80;99.90
45137;DHT22;30894;51.740;19.498;2023-02-26T06:07:42;-0.80;99.90
45137;DHT22;30894;51.740;19.498;2023-02-26T06:10:09;-0.80;99.90
45137;DHT22;30894;51.740;19.498;2023-02-26T06:12:36;-0.80;99.90
45137;DHT22;30894;51.740;19.498;2023-02-26T06:15:03;-0.80;99.90
45137;DHT22;30894;51.740;19.498;2023-02-26T06:17:30;-0.80;99.90
45137;DHT22;30894;51.740;19.498;2023-02-26T06:19:58;-0.70;99.90
45137;DHT22;30894;51.740;19.498;2023-02-26T06:22:26;-0.70;99.90
45137;DHT22;30894;51.740;19.498;2023-02-26T06:24:52;-0.70;99.90
45137;DHT22;30894;51.740;19.498;2023-02-26T06:27:21;-0.70;99.90
45137;DHT22;30894;51.740;19.498;2023-02-26T06:29:47;-0.70;99.90
45137;DHT22;30894;51.740;19.498;2023-02-26T06:32:15;-0.70;99.90
45137;DHT22;30894;51.740;19.498;2023-02-26T06:34:42;-0.70;99.90
45137;DHT22;30894;51.740;19.498;2023-02-26T06:37:09;-0.70;99.90
45137;DHT22;30894;51.740;19.498;2023-02-26T06:39:35;-0.70;99.90
45137;DHT22;30894;51.740;19.498;2023-02-26T06:42:02;-0.70;99.90
45137;DHT22;30894;51.740;19.498;2023-02-26T06:44:31;-0.70;99.90
45137;DHT22;30894;51.740;19.498;2023-02-26T06:46:58;-0.60;99.90
45137;DHT22;30894;51.740;19.498;2023-02-26T06:49:27;-0.60;99.90
45137;DHT22;30894;51.740;19.498;2023-02-26T06:51:54;-0.70;99.90
45137;DHT22;30894;51.740;19.498;2023-02-26T06:54:20;-0.70;99.90
45137;DHT22;30894;51.740;19.498;2023-02-26T06:56:46;-0.60;99.90
45137;DHT22;30894;51.740;19.498;2023-02-26T06:59:13;-0.60;99.90
45137;DHT22;30894;51.740;19.498;2023-02-26T07:01:40;-0.60;99.90
45137;DHT22;30894;51.740;19.498;2023-02-26T07:04:06;-0.60;99.90
45137;DHT22;30894;51.740;19.498;2023-02-26T07:06:33;-0.60;99.90
45137;DHT22;30894;51.740;19.498;2023-02-26T07:09:00;-0.60;99.90
45137;DHT22;30894;51.740;19.498;2023-02-26T07:11:27;-0.60;99.90
45137;DHT22;30894;51.740;19.498;2023-02-26T07:13:53;-0.50;99.90
45137;DHT22;30894;51.740;19.498;2023-02-26T07:16:20;-0.50;99.90
45137;DHT22;30894;51.740;19.498;2023-02-26T07:18:46;-0.50;99.90
45137;DHT22;30894;51.740;19.498;2023-02-26T07:21:13;-0.40;99.90
45137;DHT22;30894;51.740;19.498;2023-02-26T07:23:39;-0.40;99.90
45137;DHT22;30894;51.740;19.498;2023-02-26T07:26:05;-0.40;99.90
45137;DHT22;30894;51.740;19.498;2023-02-26T07:28:33;-0.40;99.90
45137;DHT22;30894;51.740;19.498;2023-02-26T07:31:00;-0.40;99.90
45137;DHT22;30894;51.740;19.498;2023-02-26T07:33:26;-0.30;99.90
45137;DHT22;30894;51.740;19.498;2023-02-26T07:35:54;-0.30;99.90
45137;DHT22;30894;51.740;19.498;2023-02-26T07:38:20;-0.30;99.90
45137;DHT22;30894;51.740;19.498;2023-02-26T07:40:47;-0.30;99.90
45137;DHT22;30894;51.740;19.498;2023-02-26T07:43:16;-0.30;99.90
45137;DHT22;30894;51.740;19.498;2023-02-26T07:45:43;-0.20;99.90
45137;DHT22;30894;51.740;19.498;2023-02-26T07:48:09;-0.20;99.90
45137;DHT22;30894;51.740;19.498;2023-02-26T07:50:36;-0.20;99.90
45137;DHT22;30894;51.740;19.498;2023-02-26T07:53:02;-0.10;99.90
45137;DHT22;30894;51.740;19.498;2023-02-26T07:55:28;-0.20;99.90
45137;DHT22;30894;51.740;19.498;2023-02-26T07:57:55;-0.20;99.90
45137;DHT22;30894;51.740;19.498;2023-02-26T08:00:21;-0.10;99.90
45137;DHT22;30894;51.740;19.498;2023-02-26T08:02:47;-0.10;99.90
45137;DHT22;30894;51.740;19.498;2023-02-26T08:05:14;-0.10;99.90
45137;DHT22;30894;51.740;19.498;2023-02-26T08:07:41;-0.10;99.90
45137;DHT22;30894;51.740;19.498;2023-02-26T08:10:08;-0.10;99.90
45137;DHT22;30894;51.740;19.498;2023-02-26T08:12:35;0.00;99.90
45137;DHT22;30894;51.740;19.498;2023-02-26T08:15:04;0.00;99.90
45137;DHT22;30894;51.740;19.498;2023-02-26T08:17:30;0.00;99.90
45137;DHT22;30894;51.740;19.498;2023-02-26T08:19:57;0.10;99.90
45137;DHT22;30894;51.740;19.498;2023-02-26T08:22:23;0.10;99.90
45137;DHT22;30894;51.740;19.498;2023-02-26T08:24:49;0.10;99.90
45137;DHT22;30894;51.740;19.498;2023-02-26T08:27:16;0.10;99.90
45137;DHT22;30894;51.740;19.498;2023-02-26T08:29:42;0.10;99.90
45137;DHT22;30894;51.740;19.498;2023-02-26T08:32:11;0.10;99.90
45137;DHT22;30894;51.740;19.498;2023-02-26T08:34:38;0.10;99.90
45137;DHT22;30894;51.740;19.498;2023-02-26T08:37:04;0.10;99.90
45137;DHT22;30894;51.740;19.498;2023-02-26T08:39:34;0.10;99.90
45137;DHT22;30894;51.740;19.498;2023-02-26T08:42:06;0.20;99.90
45137;DHT22;30894;51.740;19.498;2023-02-26T08:44:33;0.20;99.90
45137;DHT22;30894;51.740;19.498;2023-02-26T08:46:59;0.20;99.90
45137;DHT22;30894;51.740;19.498;2023-02-26T08:49:26;0.20;99.90
45137;DHT22;30894;51.740;19.498;2023-02-26T08:51:52;0.20;99.90
45137;DHT22;30894;51.740;19.498;2023-02-26T08:54:19;0.20;99.90
45137;DHT22;30894;51.740;19.498;2023-02-26T08:56:48;0.20;99.90
45137;DHT22;30894;51.740;19.498;2023-02-26T08:59:15;0.20;99.90
45137;DHT22;30894;51.740;19.498;2023-02-26T09:01:41;0.20;99.90
45137;DHT22;30894;51.740;19.498;2023-02-26T09:04:08;0.20;99.90
45137;DHT22;30894;51.740;19.498;2023-02-26T09:06:35;0.30;99.90
45137;DHT22;30894;51.740;19.498;2023-02-26T09:09:02;0.30;99.90
45137;DHT22;30894;51.740;19.498;2023-02-26T09:11:29;0.30;99.90
45137;DHT22;30894;51.740;19.498;2023-02-26T09:13:56;0.20;99.90
45137;DHT22;30894;51.740;19.498;2023-02-26T09:16:24;0.30;99.90
45137;DHT22;30894;51.740;19.498;2023-02-26T09:18:51;0.30;99.90
45137;DHT22;30894;51.740;19.498;2023-02-26T09:21:17;0.40;99.90
45137;DHT22;30894;51.740;19.498;2023-02-26T09:23:43;0.40;99.90
45137;DHT22;30894;51.740;19.498;2023-02-26T09:26:10;0.40;99.90
45137;DHT22;30894;51.740;19.498;2023-02-26T09:28:37;0.40;99.90
45137;DHT22;30894;51.740;19.498;2023-02-26T09:31:03;0.40;99.90
45137;DHT22;30894;51.740;19.498;2023-02-26T09:33:32;0.40;99.90
45137;DHT22;30894;51.740;19.498;2023-02-26T09:35:59;0.40;99.90
45137;DHT22;30894;51.740;19.498;2023-02-26T09:38:25;0.40;99.90
45137;DHT22;30894;51.740;19.498;2023-02-26T09:40:53;0.40;99.90
45137;DHT22;30894;51.740;19.498;2023-02-26T09:49:56;0.50;99.90
45137;DHT22;30894;51.740;19.498;2023-02-26T09:52:45;0.50;99.90
45137;DHT22;30894;51.740;19.498;2023-02-26T09:57:58;0.60;99.90
45137;DHT22;30894;51.740;19.498;2023-02-26T10:00:34;0.60;99.90
45137;DHT22;30894;51.740;19.498;2023-02-26T10:06:24;0.60;99.90
45137;DHT22;30894;51.740;19.498;2023-02-26T10:12:05;0.60;99.90
45137;DHT22;30894;51.740;19.498;2023-02-26T10:14:48;0.60;99.90
45137;DHT22;30894;51.740;19.498;2023-02-26T10:20:08;0.60;99.90
45137;DHT22;30894;51.740;19.498;2023-02-26T10:22:49;0.70;99.90
45137;DHT22;30894;51.740;19.498;2023-02-26T10:25:33;0.70;99.90
45137;DHT22;30894;51.740;19.498;2023-02-26T10:28:40;0.80;99.90
45137;DHT22;30894;51.740;19.498;2023-02-26T10:34:38;0.80;99.90
45137;DHT22;30894;51.740;19.498;2023-02-26T10:43:38;0.80;99.90
45137;DHT22;30894;51.740;19.498;2023-02-26T10:52:14;0.70;99.90
45137;DHT22;30894;51.740;19.498;2023-02-26T10:57:39;0.70;99.90
45137;DHT22;30894;51.740;19.498;2023-02-26T11:00:18;0.70;99.90
45137;DHT22;30894;51.740;19.498;2023-02-26T11:02:48;0.70;99.90
45137;DHT22;30894;51.740;19.498;2023-02-26T11:05:21;0.70;99.90
45137;DHT22;30894;51.740;19.498;2023-02-26T11:07:56;0.70;99.90
45137;DHT22;30894;51.740;19.498;2023-02-26T11:10:42;0.70;99.90
45137;DHT22;30894;51.740;19.498;2023-02-26T11:13:13;0.70;99.90
45137;DHT22;30894;51.740;19.498;2023-02-26T11:15:50;0.60;99.90
45137;DHT22;30894;51.740;19.498;2023-02-26T11:18:43;0.60;99.90
45137;DHT22;30894;51.740;19.498;2023-02-26T11:21:16;0.50;99.90
45137;DHT22;30894;51.740;19.498;2023-02-26T11:23:45;0.60;99.90
45137;DHT22;30894;51.740;19.498;2023-02-26T11:26:17;0.50;99.90
45137;DHT22;30894;51.740;19.498;2023-02-26T11:28:48;0.60;99.90
45137;DHT22;30894;51.740;19.498;2023-02-26T11:31:18;0.60;99.90
45137;DHT22;30894;51.740;19.498;2023-02-26T11:33:57;0.70;99.90
45137;DHT22;30894;51.740;19.498;2023-02-26T11:36:28;0.70;99.90
45137;DHT22;30894;51.740;19.498;2023-02-26T11:39:06;0.80;99.90
45137;DHT22;30894;51.740;19.498;2023-02-26T11:41:39;0.90;99.90
45137;DHT22;30894;51.740;19.498;2023-02-26T11:44:24;0.90;99.90
45137;DHT22;30894;51.740;19.498;2023-02-26T11:46:57;0.90;99.90
45137;DHT22;30894;51.740;19.498;2023-02-26T11:49:28;0.80;99.90
45137;DHT22;30894;51.740;19.498;2023-02-26T11:54:38;0.80;99.90
45137;DHT22;30894;51.740;19.498;2023-02-26T11:57:06;0.70;99.90
45137;DHT22;30894;51.740;19.498;2023-02-26T11:59:46;0.70;99.90
45137;DHT22;30894;51.740;19.498;2023-02-26T12:02:20;0.70;99.90
45137;DHT22;30894;51.740;19.498;2023-02-26T12:04:51;0.80;99.90
45137;DHT22;30894;51.740;19.498;2023-02-26T12:07:20;0.80;99.90
45137;DHT22;30894;51.740;19.498;2023-02-26T12:09:47;0.90;99.90
45137;DHT22;30894;51.740;19.498;2023-02-26T12:27:16;2.30;99.90
45137;DHT22;30894;51.740;19.498;2023-02-26T12:30:21;2.20;99.90
45137;DHT22;30894;51.740;19.498;2023-02-26T12:33:07;1.90;99.90
45137;DHT22;30894;51.740;19.498;2023-02-26T12:35:56;1.80;99.90
45137;DHT22;30894;51.740;19.498;2023-02-26T12:42:30;1.60;99.90
45137;DHT22;30894;51.740;19.498;2023-02-26T13:01:27;1.60;99.90
45137;DHT22;30894;51.740;19.498;2023-02-26T13:21:33;3.30;99.90
45137;DHT22;30894;51.740;19.498;2023-02-26T13:24:11;3.10;99.90
45137;DHT22;30894;51.740;19.498;2023-02-26T13:26:39;2.90;99.90
45137;DHT22;30894;51.740;19.498;2023-02-26T13:31:44;2.40;99.90
45137;DHT22;30894;51.740;19.498;2023-02-26T13:34:49;2.10;99.90
45137;DHT22;30894;51.740;19.498;2023-02-26T13:37:26;1.80;99.90
45137;DHT22;30894;51.740;19.498;2023-02-26T13:42:59;1.40;99.90
45137;DHT22;30894;51.740;19.498;2023-02-26T13:46:07;1.30;99.90
45137;DHT22;30894;51.740;19.498;2023-02-26T13:49:13;1.10;99.90
45137;DHT22;30894;51.740;19.498;2023-02-26T13:51:46;1.10;99.90
45137;DHT22;30894;51.740;19.498;2023-02-26T13:56:53;1.00;99.90
45137;DHT22;30894;51.740;19.498;2023-02-26T13:59:36;1.00;99.90
45137;DHT22;30894;51.740;19.498;2023-02-26T14:04:56;1.00;99.90
45137;DHT22;30894;51.740;19.498;2023-02-26T14:13:40;0.90;99.90
45137;DHT22;30894;51.740;19.498;2023-02-26T14:16:25;0.90;99.90
45137;DHT22;30894;51.740;19.498;2023-02-26T14:19:03;0.90;99.90
45137;DHT22;30894;51.740;19.498;2023-02-26T14:21:54;0.90;99.90
45137;DHT22;30894;51.740;19.498;2023-02-26T14:24:44;0.80;99.90
45137;DHT22;30894;51.740;19.498;2023-02-26T14:35:42;1.30;99.90
45137;DHT22;30894;51.740;19.498;2023-02-26T14:38:29;1.30;99.90
45137;DHT22;30894;51.740;19.498;2023-02-26T14:41:23;1.10;99.90
45137;DHT22;30894;51.740;19.498;2023-02-26T14:46:40;1.00;99.90
45137;DHT22;30894;51.740;19.498;2023-02-26T14:49:16;1.00;99.90
45137;DHT22;30894;51.740;19.498;2023-02-26T14:52:01;1.00;99.90
45137;DHT22;30894;51.740;19.498;2023-02-26T14:55:00;0.90;99.90
45137;DHT22;30894;51.740;19.498;2023-02-26T15:16:07;0.80;99.90
45137;DHT22;30894;51.740;19.498;2023-02-26T15:19:08;0.70;99.90
45137;DHT22;30894;51.740;19.498;2023-02-26T15:24:22;0.70;99.90
45137;DHT22;30894;51.740;19.498;2023-02-26T15:26:52;0.70;99.90
45137;DHT22;30894;51.740;19.498;2023-02-26T15:29:27;0.70;99.90
45137;DHT22;30894;51.740;19.498;2023-02-26T15:32:21;0.60;99.90
45137;DHT22;30894;51.740;19.498;2023-02-26T15:35:03;0.60;99.90
45137;DHT22;30894;51.740;19.498;2023-02-26T15:37:41;0.60;99.90
45137;DHT22;30894;51.740;19.498;2023-02-26T15:40:10;0.50;99.90
45137;DHT22;30894;51.740;19.498;2023-02-26T15:42:41;0.50;99.90
45137;DHT22;30894;51.740;19.498;2023-02-26T15:45:53;0.50;99.90
45137;DHT22;30894;51.740;19.498;2023-02-26T15:48:30;0.50;99.90
45137;DHT22;30894;51.740;19.498;2023-02-26T15:51:01;0.40;99.90
45137;DHT22;30894;51.740;19.498;2023-02-26T15:53:36;0.40;99.90
45137;DHT22;30894;51.740;19.498;2023-02-26T15:56:23;0.40;99.90
45137;DHT22;30894;51.740;19.498;2023-02-26T15:59:00;0.40;99.90
45137;DHT22;30894;51.740;19.498;2023-02-26T16:01:32;0.40;99.90
45137;DHT22;30894;51.740;19.498;2023-02-26T16:04:07;0.40;99.90
45137;DHT22;30894;51.740;19.498;2023-02-26T16:06:40;0.30;99.90
45137;DHT22;30894;51.740;19.498;2023-02-26T16:09:24;0.30;99.90
45137;DHT22;30894;51.740;19.498;2023-02-26T16:11:53;0.30;99.90
45137;DHT22;30894;51.740;19.498;2023-02-26T16:14:26;0.30;99.90
45137;DHT22;30894;51.740;19.498;2023-02-26T16:16:55;0.30;99.90
45137;DHT22;30894;51.740;19.498;2023-02-26T16:19:42;0.20;99.90
45137;DHT22;30894;51.740;19.498;2023-02-26T16:22:33;0.20;99.90
45137;DHT22;30894;51.740;19.498;2023-02-26T16:25:27;0.20;99.90
45137;DHT22;30894;51.740;19.498;2023-02-26T16:28:03;0.20;99.90
45137;DHT22;30894;51.740;19.498;2023-02-26T16:30:35;0.20;99.90
45137;DHT22;30894;51.740;19.498;2023-02-26T16:33:11;0.10;99.90
45137;DHT22;30894;51.740;19.498;2023-02-26T16:35:43;0.20;99.90
45137;DHT22;30894;51.740;19.498;2023-02-26T16:38:25;0.10;99.90
45137;DHT22;30894;51.740;19.498;2023-02-26T16:40:59;0.10;99.90
45137;DHT22;30894;51.740;19.498;2023-02-26T16:46:35;0.10;99.90
45137;DHT22;30894;51.740;19.498;2023-02-26T16:49:21;0.10;99.90
45137;DHT22;30894;51.740;19.498;2023-02-26T16:51:53;0.00;99.90
45137;DHT22;30894;51.740;19.498;2023-02-26T16:54:28;0.10;99.90
45137;DHT22;30894;51.740;19.498;2023-02-26T16:57:03;0.10;99.90
45137;DHT22;30894;51.740;19.498;2023-02-26T16:59:35;0.10;99.90
45137;DHT22;30894;51.740;19.498;2023-02-26T17:02:19;0.10;99.90
45137;DHT22;30894;51.740;19.498;2023-02-26T17:05:21;0.10;99.90
45137;DHT22;30894;51.740;19.498;2023-02-26T17:08:04;0.10;99.90
45137;DHT22;30894;51.740;19.498;2023-02-26T17:10:59;0.10;99.90
45137;DHT22;30894;51.740;19.498;2023-02-26T17:13:32;0.10;99.90
45137;DHT22;30894;51.740;19.498;2023-02-26T17:16:05;0.10;99.90
45137;DHT22;30894;51.740;19.498;2023-02-26T17:18:33;0.10;99.90
45137;DHT22;30894;51.740;19.498;2023-02-26T17:21:00;0.10;99.90
45137;DHT22;30894;51.740;19.498;2023-02-26T17:23:36;0.10;99.90
45137;DHT22;30894;51.740;19.498;2023-02-26T17:26:04;0.10;99.90
45137;DHT22;30894;51.740;19.498;2023-02-26T17:28:33;0.10;99.90
45137;DHT22;30894;51.740;19.498;2023-02-26T17:31:02;0.10;99.90
45137;DHT22;30894;51.740;19.498;2023-02-26T17:33:37;0.10;99.90
45137;DHT22;30894;51.740;19.498;2023-02-26T17:36:05;0.10;99.90
45137;DHT22;30894;51.740;19.498;2023-02-26T17:38:32;0.10;99.90
45137;DHT22;30894;51.740;19.498;2023-02-26T17:40:58;0.00;99.90
45137;DHT22;30894;51.740;19.498;2023-02-26T17:43:28;0.00;99.90
45137;DHT22;30894;51.740;19.498;2023-02-26T17:45:55;0.00;99.90
45137;DHT22;30894;51.740;19.498;2023-02-26T17:48:21;0.00;99.90
45137;DHT22;30894;51.740;19.498;2023-02-26T17:50:51;0.00;99.90
45137;DHT22;30894;51.740;19.498;2023-02-26T17:53:20;0.00;99.90
45137;DHT22;30894;51.740;19.498;2023-02-26T17:55:49;0.00;99.90
45137;DHT22;30894;51.740;19.498;2023-02-26T18:00:49;-0.10;99.90
45137;DHT22;30894;51.740;19.498;2023-02-26T18:03:19;-0.20;99.90
45137;DHT22;30894;51.740;19.498;2023-02-26T18:05:48;-0.20;99.90
45137;DHT22;30894;51.740;19.498;2023-02-26T18:08:27;-0.20;99.90
45137;DHT22;30894;51.740;19.498;2023-02-26T18:10:58;-0.20;99.90
45137;DHT22;30894;51.740;19.498;2023-02-26T18:13:26;-0.20;99.90
45137;DHT22;30894;51.740;19.498;2023-02-26T18:15:54;-0.30;99.90
45137;DHT22;30894;51.740;19.498;2023-02-26T18:18:24;-0.30;99.90
45137;DHT22;30894;51.740;19.498;2023-02-26T18:20:51;-0.30;99.90
45137;DHT22;30894;51.740;19.498;2023-02-26T18:23:18;-0.30;99.90
45137;DHT22;30894;51.740;19.498;2023-02-26T18:25:47;-0.40;99.90
45137;DHT22;30894;51.740;19.498;2023-02-26T18:28:22;-0.40;99.90
45137;DHT22;30894;51.740;19.498;2023-02-26T18:30:51;-0.40;99.90
45137;DHT22;30894;51.740;19.498;2023-02-26T18:33:18;-0.30;99.90
45137;DHT22;30894;51.740;19.498;2023-02-26T18:35:47;-0.30;99.90
45137;DHT22;30894;51.740;19.498;2023-02-26T18:38:20;-0.30;99.90
45137;DHT22;30894;51.740;19.498;2023-02-26T18:40:50;-0.30;99.90
45137;DHT22;30894;51.740;19.498;2023-02-26T18:43:19;-0.30;99.90
45137;DHT22;30894;51.740;19.498;2023-02-26T18:45:46;-0.30;99.90
45137;DHT22;30894;51.740;19.498;2023-02-26T18:48:17;-0.30;99.90
45137;DHT22;30894;51.740;19.498;2023-02-26T18:50:45;-0.30;99.90
45137;DHT22;30894;51.740;19.498;2023-02-26T18:53:12;-0.20;99.90
45137;DHT22;30894;51.740;19.498;2023-02-26T18:55:39;-0.20;99.90
45137;DHT22;30894;51.740;19.498;2023-02-26T18:58:06;-0.20;99.90
45137;DHT22;30894;51.740;19.498;2023-02-26T19:00:33;-0.20;99.90
45137;DHT22;30894;51.740;19.498;2023-02-26T19:03:00;-0.20;99.90
45137;DHT22;30894;51.740;19.498;2023-02-26T19:05:26;-0.20;99.90
45137;DHT22;30894;51.740;19.498;2023-02-26T19:07:53;-0.10;99.90
45137;DHT22;30894;51.740;19.498;2023-02-26T19:10:20;-0.10;99.90
45137;DHT22;30894;51.740;19.498;2023-02-26T19:12:47;-0.20;99.90
45137;DHT22;30894;51.740;19.498;2023-02-26T19:15:15;-0.10;99.90
45137;DHT22;30894;51.740;19.498;2023-02-26T19:17:42;-0.10;99.90
45137;DHT22;30894;51.740;19.498;2023-02-26T19:20:09;-0.10;99.90
45137;DHT22;30894;51.740;19.498;2023-02-26T19:22:37;-0.10;99.90